| time (UTC) | temp C | wind direction | speed KPH | gust KPH | rain 1hr cm | rain 24hr cm | rain mn cm | humidity % | barometer mb |
| 20260507023039 | 17 | 360 | 11.3 | 0.0 | 0.00 | 0.00 | 0.00 | 55 | 1011.1 |
| 20260507021538 | 17 | 360 | 9.7 | 0.0 | 0.00 | 0.00 | 0.00 | 53 | 1011.0 |
| 20260507020045 | 18 | 360 | 14.5 | 0.0 | 0.00 | 0.00 | 0.00 | 52 | 1010.7 |
| 20260507014536 | 18 | 360 | 17.7 | 0.0 | 0.00 | 0.00 | 0.00 | 51 | 1010.5 |
| 20260507013033 | 18 | 325 | 19.3 | 0.0 | 0.00 | 0.00 | 0.00 | 50 | 1010.6 |
| 20260507011531 | 18 | 360 | 19.3 | 0.0 | 0.00 | 0.00 | 0.00 | 50 | 1010.4 |
| 20260507010032 | 19 | 360 | 19.3 | 0.0 | 0.00 | 0.00 | 0.00 | 48 | 1010.2 |
| 20260507004533 | 19 | 360 | 14.5 | 0.0 | 0.00 | 0.00 | 0.00 | 46 | 1010.1 |
| 20260507003032 | 20 | 346 | 16.1 | 0.0 | 0.00 | 0.00 | 0.00 | 46 | 1010.1 |
| 20260507001536 | 20 | 360 | 14.5 | 0.0 | 0.00 | 0.00 | 0.00 | 46 | 1010.1 |
| 20260507000029 | 20 | 244 | 19.3 | 0.0 | 0.00 | 0.00 | 0.00 | 46 | 1009.9 |
| 20260506234527 | 20 | 360 | 19.3 | 0.0 | 0.00 | 0.00 | 0.00 | 45 | 1009.8 |
| 20260506233027 | 20 | 360 | 14.5 | 0.0 | 0.00 | 0.00 | 0.00 | 44 | 1009.5 |
| 20260506231529 | 21 | 360 | 14.5 | 0.0 | 0.00 | 0.00 | 0.00 | 44 | 1009.7 |
| 20260506230026 | 21 | 360 | 19.3 | 0.0 | 0.00 | 0.00 | 0.00 | 43 | 1009.8 |
| 20260506224526 | 21 | 360 | 19.3 | 0.0 | 0.00 | 0.00 | 0.00 | 43 | 1009.7 |
| 20260506223025 | 21 | 219 | 14.5 | 0.0 | 0.00 | 0.00 | 0.00 | 44 | 1009.7 |
| 20260506221525 | 22 | 360 | 16.1 | 0.0 | 0.00 | 0.00 | 0.00 | 43 | 1009.8 |
| 20260506220025 | 22 | 360 | 20.9 | 0.0 | 0.00 | 0.00 | 0.00 | 42 | 1009.7 |
| 20260506214523 | 22 | 360 | 22.5 | 0.0 | 0.00 | 0.00 | 0.00 | 42 | 1009.8 |
| 20260506213022 | 23 | 360 | 20.9 | 0.0 | 0.00 | 0.00 | 0.00 | 42 | 1009.6 |
| 20260506211523 | 23 | 360 | 20.9 | 0.0 | 0.00 | 0.00 | 0.00 | 41 | 1009.4 |
| 20260506210023 | 23 | 360 | 19.3 | 0.0 | 0.00 | 0.00 | 0.00 | 42 | 1009.5 |
| 20260506204521 | 23 | 32 | 20.9 | 0.0 | 0.00 | 0.00 | 0.00 | 41 | 1009.4 |
| 20260506203027 | 23 | 360 | 20.9 | 0.0 | 0.00 | 0.00 | 0.00 | 42 | 1009.3 |
| 20260506201520 | 24 | 360 | 19.3 | 0.0 | 0.00 | 0.00 | 0.00 | 41 | 1009.2 |
| 20260506200018 | 23 | 360 | 17.7 | 0.0 | 0.00 | 0.00 | 0.00 | 40 | 1009.1 |
| 20260506194517 | 24 | 319 | 20.9 | 0.0 | 0.00 | 0.00 | 0.00 | 41 | 1009.1 |
| 20260506193016 | 24 | 360 | 22.5 | 0.0 | 0.00 | 0.00 | 0.00 | 40 | 1009.3 |
| 20260506191515 | 24 | 360 | 27.4 | 0.0 | 0.00 | 0.00 | 0.00 | 35 | 1008.9 |
| 20260506190014 | 24 | 48 | 25.7 | 0.0 | 0.00 | 0.00 | 0.00 | 36 | 1008.8 |
| 20260506184513 | 23 | 360 | 22.5 | 0.0 | 0.00 | 0.00 | 0.00 | 35 | 1008.8 |
| 20260506183012 | 23 | 360 | 20.9 | 0.0 | 0.00 | 0.00 | 0.00 | 38 | 1008.9 |
| 20260506181510 | 23 | 360 | 17.7 | 0.0 | 0.00 | 0.00 | 0.00 | 38 | 1009.3 |
| 20260506180015 | 23 | 360 | 19.3 | 0.0 | 0.00 | 0.00 | 0.00 | 39 | 1009.2 |
| 20260506174507 | 23 | 360 | 11.3 | 0.0 | 0.00 | 0.00 | 0.00 | 41 | 1009.3 |
| 20260506173003 | 22 | 360 | 11.3 | 0.0 | 0.00 | 0.00 | 0.00 | 43 | 1009.4 |
| 20260506171605 | 21 | 360 | 12.9 | 0.0 | 0.00 | 0.00 | 0.00 | 46 | 1009.4 |
| 20260506170107 | 21 | 360 | 12.9 | 0.0 | 0.00 | 0.00 | 0.00 | 47 | 1009.6 |
| 20260506164600 | 20 | 267 | 12.9 | 0.0 | 0.00 | 0.00 | 0.00 | 49 | 1009.7 |
| 20260506163103 | 20 | 360 | 11.3 | 0.0 | 0.00 | 0.00 | 0.00 | 49 | 1009.7 |
| 20260506161556 | 19 | 345 | 16.1 | 0.0 | 0.00 | 0.00 | 0.00 | 50 | 1009.7 |
| 20260506160047 | 18 | 360 | 14.5 | 0.0 | 0.00 | 0.00 | 0.00 | 52 | 1009.8 |
| 20260506154556 | 18 | 26 | 16.1 | 0.0 | 0.00 | 0.00 | 0.00 | 53 | 1010.0 |
| 20260506153038 | 17 | 360 | 16.1 | 0.0 | 0.00 | 0.00 | 0.00 | 54 | 1010.2 |
| 20260506151538 | 17 | 360 | 12.9 | 0.0 | 0.00 | 0.00 | 0.00 | 56 | 1010.1 |
| 20260506150035 | 16 | 360 | 11.3 | 0.0 | 0.00 | 0.00 | 0.00 | 58 | 1010.1 |
| 20260506144537 | 16 | 360 | 9.7 | 0.0 | 0.00 | 0.00 | 0.00 | 60 | 1010.1 |
| 20260506143034 | 15 | 360 | 9.7 | 0.0 | 0.00 | 0.00 | 0.00 | 62 | 1010.1 |
| 20260506141533 | 15 | 360 | 6.4 | 0.0 | 0.00 | 0.00 | 0.00 | 65 | 1010.1 |
| 20260506140034 | 14 | 360 | 6.4 | 0.0 | 0.00 | 0.00 | 0.00 | 67 | 1010.1 |
| 20260506134532 | 13 | 360 | 3.2 | 0.0 | 0.00 | 0.00 | 0.00 | 69 | 1010.1 |
| 20260506133042 | 14 | 360 | 4.8 | 0.0 | 0.00 | 0.00 | 0.00 | 68 | 1009.9 |
| 20260506131532 | 13 | 360 | 6.4 | 0.0 | 0.00 | 0.00 | 0.00 | 68 | 1009.8 |
| 20260506130028 | 14 | 360 | 4.8 | 0.0 | 0.00 | 0.00 | 0.00 | 68 | 1009.9 |
| 20260506124524 | 14 | 360 | 8.0 | 0.0 | 0.00 | 0.00 | 0.00 | 67 | 1009.7 |
| 20260506123023 | 14 | 317 | 4.8 | 0.0 | 0.00 | 0.00 | 0.00 | 66 | 1009.8 |
| 20260506121521 | 14 | 360 | 1.6 | 0.0 | 0.00 | 0.00 | 0.00 | 66 | 1009.7 |
| 20260506120034 | 14 | 360 | 6.4 | 0.0 | 0.00 | 0.00 | 0.00 | 65 | 1009.6 |
| 20260506114519 | 14 | 360 | 6.4 | 0.0 | 0.00 | 0.00 | 0.00 | 66 | 1009.6 |
| 20260506113018 | 14 | 360 | 3.2 | 0.0 | 0.00 | 0.00 | 0.00 | 65 | 1009.5 |
| 20260506111516 | 15 | 360 | 4.8 | 0.0 | 0.00 | 0.00 | 0.00 | 64 | 1009.4 |
| 20260506110015 | 15 | 360 | 6.4 | 0.0 | 0.00 | 0.00 | 0.00 | 64 | 1009.3 |
| 20260506104513 | 15 | 360 | 4.8 | 0.0 | 0.00 | 0.00 | 0.00 | 63 | 1009.2 |
| 20260506103011 | 15 | 360 | 6.4 | 0.0 | 0.00 | 0.00 | 0.00 | 63 | 1009.0 |
| 20260506101509 | 15 | 360 | 4.8 | 0.0 | 0.00 | 0.00 | 0.00 | 61 | 1008.9 |
| 20260506100007 | 15 | 360 | 6.4 | 0.0 | 0.00 | 0.00 | 0.00 | 60 | 1008.9 |
| 20260506094506 | 16 | 340 | 6.4 | 0.0 | 0.00 | 0.00 | 0.00 | 59 | 1008.9 |
| 20260506093003 | 16 | 360 | 8.0 | 0.0 | 0.00 | 0.00 | 0.00 | 59 | 1008.7 |
| 20260506091501 | 16 | 360 | 8.0 | 0.0 | 0.00 | 0.00 | 0.00 | 60 | 1008.8 |
| 20260506084603 | 16 | 360 | 8.0 | 0.0 | 0.00 | 0.00 | 0.00 | 60 | 1008.6 |
| 20260506083059 | 16 | 360 | 4.8 | 0.0 | 0.00 | 0.00 | 0.00 | 59 | 1008.6 |
| 20260506081558 | 16 | 360 | 4.8 | 0.0 | 0.00 | 0.00 | 0.00 | 59 | 1008.7 |
| 20260506073051 | 17 | 360 | 6.4 | 0.0 | 0.00 | 0.00 | 0.00 | 58 | 1008.5 |
| 20260506071546 | 17 | 360 | 8.0 | 0.0 | 0.00 | 0.00 | 0.00 | 58 | 1008.3 |
| 20260506061546 | 17 | 344 | 9.7 | 0.0 | 0.00 | 0.00 | 0.00 | 60 | 1008.1 |
| 20260506044541 | 19 | 360 | 9.7 | 0.0 | 0.00 | 0.00 | 0.00 | 54 | 1007.6 |
| 20260506043040 | 20 | 360 | 8.0 | 0.0 | 0.00 | 0.00 | 0.00 | 53 | 1007.5 |
| 20260506041540 | 20 | 360 | 6.4 | 0.0 | 0.00 | 0.00 | 0.00 | 52 | 1007.3 |
| 20260506040041 | 20 | 360 | 6.4 | 0.0 | 0.00 | 0.00 | 0.00 | 51 | 1007.1 |
| 20260506034539 | 21 | 360 | 4.8 | 0.0 | 0.00 | 0.00 | 0.00 | 47 | 1006.9 |
| 20260506033041 | 22 | 360 | 6.4 | 0.0 | 0.00 | 0.00 | 0.00 | 42 | 1006.6 |
| 20260506031539 | 23 | 360 | 8.0 | 0.0 | 0.00 | 0.00 | 0.00 | 39 | 1006.5 |
| 20260506030038 | 24 | 360 | 11.3 | 0.0 | 0.00 | 0.00 | 0.00 | 37 | 1006.2 |
| 20260506024538 | 25 | 360 | 9.7 | 0.0 | 0.00 | 0.00 | 0.00 | 34 | 1006.1 |